sensor_id;sensor_type;location;lat;lon;timestamp;P1;durP1;ratioP1;P2;durP2;ratioP2
6251;SDS011;3159;52.414;9.784;2022-09-09T00:00:23;1.90;;;1.07;;
6251;SDS011;3159;52.414;9.784;2022-09-09T00:02:54;1.27;;;1.00;;
6251;SDS011;3159;52.414;9.784;2022-09-09T00:05:29;1.93;;;1.07;;
6251;SDS011;3159;52.414;9.784;2022-09-09T00:08:02;1.10;;;1.00;;
6251;SDS011;3159;52.414;9.784;2022-09-09T00:10:34;1.57;;;1.20;;
6251;SDS011;3159;52.414;9.784;2022-09-09T00:13:11;1.63;;;1.00;;
6251;SDS011;3159;52.414;9.784;2022-09-09T00:15:43;2.23;;;1.20;;
6251;SDS011;3159;52.414;9.784;2022-09-09T00:18:21;0.97;;;0.80;;
6251;SDS011;3159;52.414;9.784;2022-09-09T00:20:52;1.83;;;0.83;;
6251;SDS011;3159;52.414;9.784;2022-09-09T00:23:24;1.37;;;0.80;;
6251;SDS011;3159;52.414;9.784;2022-09-09T00:25:58;2.73;;;0.90;;
6251;SDS011;3159;52.414;9.784;2022-09-09T00:28:32;2.10;;;1.03;;
6251;SDS011;3159;52.414;9.784;2022-09-09T00:31:07;1.00;;;0.90;;
6251;SDS011;3159;52.414;9.784;2022-09-09T00:33:38;4.00;;;0.80;;
6251;SDS011;3159;52.414;9.784;2022-09-09T00:36:09;1.60;;;0.83;;
6251;SDS011;3159;52.414;9.784;2022-09-09T00:38:42;1.80;;;0.83;;
6251;SDS011;3159;52.414;9.784;2022-09-09T00:41:15;1.13;;;0.70;;
6251;SDS011;3159;52.414;9.784;2022-09-09T00:43:49;1.83;;;0.60;;
6251;SDS011;3159;52.414;9.784;2022-09-09T00:46:35;1.00;;;0.60;;
6251;SDS011;3159;52.414;9.784;2022-09-09T00:49:29;2.80;;;1.07;;
6251;SDS011;3159;52.414;9.784;2022-09-09T00:52:09;2.80;;;0.90;;
6251;SDS011;3159;52.414;9.784;2022-09-09T00:54:45;1.57;;;0.53;;
6251;SDS011;3159;52.414;9.784;2022-09-09T00:57:23;2.63;;;0.60;;
6251;SDS011;3159;52.414;9.784;2022-09-09T00:59:58;1.37;;;0.70;;
6251;SDS011;3159;52.414;9.784;2022-09-09T01:02:32;0.93;;;0.60;;
6251;SDS011;3159;52.414;9.784;2022-09-09T01:05:07;1.00;;;0.60;;
6251;SDS011;3159;52.414;9.784;2022-09-09T01:07:41;1.37;;;0.60;;
6251;SDS011;3159;52.414;9.784;2022-09-09T01:10:15;2.37;;;0.90;;
6251;SDS011;3159;52.414;9.784;2022-09-09T01:12:53;2.23;;;0.80;;
6251;SDS011;3159;52.414;9.784;2022-09-09T01:15:27;2.70;;;0.70;;
6251;SDS011;3159;52.414;9.784;2022-09-09T01:17:58;3.73;;;0.80;;
6251;SDS011;3159;52.414;9.784;2022-09-09T01:20:30;1.37;;;0.80;;
6251;SDS011;3159;52.414;9.784;2022-09-09T01:23:13;2.43;;;0.87;;
6251;SDS011;3159;52.414;9.784;2022-09-09T01:28:51;0.80;;;0.70;;
6251;SDS011;3159;52.414;9.784;2022-09-09T01:31:19;3.10;;;0.80;;
6251;SDS011;3159;52.414;9.784;2022-09-09T01:33:48;3.60;;;0.90;;
6251;SDS011;3159;52.414;9.784;2022-09-09T01:36:18;1.80;;;0.67;;
6251;SDS011;3159;52.414;9.784;2022-09-09T01:38:51;0.70;;;0.60;;
6251;SDS011;3159;52.414;9.784;2022-09-09T01:41:18;0.60;;;0.60;;
6251;SDS011;3159;52.414;9.784;2022-09-09T01:43:48;1.70;;;0.70;;
6251;SDS011;3159;52.414;9.784;2022-09-09T01:46:17;1.90;;;0.70;;
6251;SDS011;3159;52.414;9.784;2022-09-09T01:48:47;1.77;;;0.87;;
6251;SDS011;3159;52.414;9.784;2022-09-09T01:51:15;1.27;;;0.83;;
6251;SDS011;3159;52.414;9.784;2022-09-09T01:53:42;1.83;;;0.70;;
6251;SDS011;3159;52.414;9.784;2022-09-09T01:56:18;1.80;;;0.70;;
6251;SDS011;3159;52.414;9.784;2022-09-09T01:59:05;1.27;;;0.73;;
6251;SDS011;3159;52.414;9.784;2022-09-09T02:01:41;0.60;;;0.50;;
6251;SDS011;3159;52.414;9.784;2022-09-09T02:04:18;1.97;;;0.70;;
6251;SDS011;3159;52.414;9.784;2022-09-09T02:06:55;2.57;;;0.73;;
6251;SDS011;3159;52.414;9.784;2022-09-09T02:09:23;1.03;;;0.70;;
6251;SDS011;3159;52.414;9.784;2022-09-09T02:11:52;0.93;;;0.50;;
6251;SDS011;3159;52.414;9.784;2022-09-09T02:14:27;1.70;;;0.50;;
6251;SDS011;3159;52.414;9.784;2022-09-09T02:16:56;2.97;;;0.70;;
6251;SDS011;3159;52.414;9.784;2022-09-09T02:19:28;1.50;;;0.77;;
6251;SDS011;3159;52.414;9.784;2022-09-09T02:21:59;3.20;;;0.77;;
6251;SDS011;3159;52.414;9.784;2022-09-09T02:24:28;1.30;;;0.60;;
6251;SDS011;3159;52.414;9.784;2022-09-09T02:26:58;0.70;;;0.50;;
6251;SDS011;3159;52.414;9.784;2022-09-09T02:29:29;2.70;;;0.87;;
6251;SDS011;3159;52.414;9.784;2022-09-09T02:32:00;2.27;;;0.93;;
6251;SDS011;3159;52.414;9.784;2022-09-09T02:34:29;1.13;;;0.70;;
6251;SDS011;3159;52.414;9.784;2022-09-09T02:37:00;1.47;;;0.60;;
6251;SDS011;3159;52.414;9.784;2022-09-09T02:39:29;1.67;;;0.63;;
6251;SDS011;3159;52.414;9.784;2022-09-09T02:41:56;1.77;;;0.90;;
6251;SDS011;3159;52.414;9.784;2022-09-09T02:44:23;1.03;;;0.63;;
6251;SDS011;3159;52.414;9.784;2022-09-09T02:46:56;2.37;;;0.67;;
6251;SDS011;3159;52.414;9.784;2022-09-09T02:49:35;1.27;;;1.07;;
6251;SDS011;3159;52.414;9.784;2022-09-09T02:52:12;1.03;;;0.67;;
6251;SDS011;3159;52.414;9.784;2022-09-09T02:54:41;0.60;;;0.50;;
6251;SDS011;3159;52.414;9.784;2022-09-09T02:57:10;1.63;;;0.63;;
6251;SDS011;3159;52.414;9.784;2022-09-09T02:59:38;1.10;;;0.87;;
6251;SDS011;3159;52.414;9.784;2022-09-09T03:02:08;0.90;;;0.77;;
6251;SDS011;3159;52.414;9.784;2022-09-09T03:04:35;1.20;;;0.60;;
6251;SDS011;3159;52.414;9.784;2022-09-09T03:07:02;2.90;;;0.77;;
6251;SDS011;3159;52.414;9.784;2022-09-09T03:09:30;2.00;;;1.00;;
6251;SDS011;3159;52.414;9.784;2022-09-09T03:11:57;0.70;;;0.50;;
6251;SDS011;3159;52.414;9.784;2022-09-09T03:14:25;1.33;;;0.60;;
6251;SDS011;3159;52.414;9.784;2022-09-09T03:16:52;0.80;;;0.73;;
6251;SDS011;3159;52.414;9.784;2022-09-09T03:19:22;2.77;;;0.80;;
6251;SDS011;3159;52.414;9.784;2022-09-09T03:21:49;1.70;;;0.80;;
6251;SDS011;3159;52.414;9.784;2022-09-09T03:24:17;1.80;;;0.80;;
6251;SDS011;3159;52.414;9.784;2022-09-09T03:26:44;3.23;;;1.20;;
6251;SDS011;3159;52.414;9.784;2022-09-09T03:29:11;2.13;;;0.77;;
6251;SDS011;3159;52.414;9.784;2022-09-09T03:31:38;1.53;;;0.70;;
6251;SDS011;3159;52.414;9.784;2022-09-09T03:34:06;1.37;;;0.70;;
6251;SDS011;3159;52.414;9.784;2022-09-09T03:36:34;2.57;;;0.90;;
6251;SDS011;3159;52.414;9.784;2022-09-09T03:39:02;1.70;;;0.63;;
6251;SDS011;3159;52.414;9.784;2022-09-09T03:41:30;4.27;;;0.87;;
6251;SDS011;3159;52.414;9.784;2022-09-09T03:43:57;1.47;;;0.77;;
6251;SDS011;3159;52.414;9.784;2022-09-09T03:46:24;1.67;;;0.77;;
6251;SDS011;3159;52.414;9.784;2022-09-09T03:48:52;1.70;;;0.73;;
6251;SDS011;3159;52.414;9.784;2022-09-09T03:51:19;1.40;;;0.70;;
6251;SDS011;3159;52.414;9.784;2022-09-09T03:53:48;3.37;;;1.00;;
6251;SDS011;3159;52.414;9.784;2022-09-09T03:56:15;2.27;;;0.97;;
6251;SDS011;3159;52.414;9.784;2022-09-09T03:58:42;2.00;;;0.90;;
6251;SDS011;3159;52.414;9.784;2022-09-09T04:01:10;1.70;;;1.10;;
6251;SDS011;3159;52.414;9.784;2022-09-09T04:03:39;1.53;;;0.83;;
6251;SDS011;3159;52.414;9.784;2022-09-09T04:06:06;1.03;;;0.80;;
6251;SDS011;3159;52.414;9.784;2022-09-09T04:08:34;3.13;;;1.00;;
6251;SDS011;3159;52.414;9.784;2022-09-09T04:11:04;8.90;;;1.03;;
6251;SDS011;3159;52.414;9.784;2022-09-09T04:13:32;3.03;;;1.07;;
6251;SDS011;3159;52.414;9.784;2022-09-09T04:15:59;2.40;;;0.73;;
6251;SDS011;3159;52.414;9.784;2022-09-09T04:18:28;1.60;;;0.80;;
6251;SDS011;3159;52.414;9.784;2022-09-09T04:20:55;4.27;;;1.03;;
6251;SDS011;3159;52.414;9.784;2022-09-09T04:23:23;3.23;;;1.10;;
6251;SDS011;3159;52.414;9.784;2022-09-09T04:25:51;1.90;;;0.97;;
6251;SDS011;3159;52.414;9.784;2022-09-09T04:28:22;1.30;;;1.00;;
6251;SDS011;3159;52.414;9.784;2022-09-09T04:30:50;3.70;;;1.10;;
6251;SDS011;3159;52.414;9.784;2022-09-09T04:33:18;1.30;;;1.20;;
6251;SDS011;3159;52.414;9.784;2022-09-09T04:35:45;1.30;;;0.73;;
6251;SDS011;3159;52.414;9.784;2022-09-09T04:38:13;2.43;;;1.10;;
6251;SDS011;3159;52.414;9.784;2022-09-09T04:40:42;3.10;;;1.10;;
6251;SDS011;3159;52.414;9.784;2022-09-09T04:43:09;0.87;;;0.80;;
6251;SDS011;3159;52.414;9.784;2022-09-09T04:45:37;3.80;;;0.90;;
6251;SDS011;3159;52.414;9.784;2022-09-09T04:48:05;1.47;;;0.90;;
6251;SDS011;3159;52.414;9.784;2022-09-09T04:50:32;3.03;;;1.53;;
6251;SDS011;3159;52.414;9.784;2022-09-09T04:53:00;2.57;;;0.90;;
6251;SDS011;3159;52.414;9.784;2022-09-09T04:55:27;2.03;;;1.40;;
6251;SDS011;3159;52.414;9.784;2022-09-09T04:57:55;1.20;;;0.90;;
6251;SDS011;3159;52.414;9.784;2022-09-09T05:00:23;1.90;;;1.00;;
6251;SDS011;3159;52.414;9.784;2022-09-09T05:02:51;3.33;;;1.13;;
6251;SDS011;3159;52.414;9.784;2022-09-09T05:05:18;2.67;;;0.93;;
6251;SDS011;3159;52.414;9.784;2022-09-09T05:07:45;2.57;;;1.20;;
6251;SDS011;3159;52.414;9.784;2022-09-09T05:10:13;3.00;;;1.40;;
6251;SDS011;3159;52.414;9.784;2022-09-09T05:12:41;3.53;;;1.10;;
6251;SDS011;3159;52.414;9.784;2022-09-09T05:15:09;2.57;;;1.20;;
6251;SDS011;3159;52.414;9.784;2022-09-09T05:17:36;3.10;;;1.00;;
6251;SDS011;3159;52.414;9.784;2022-09-09T05:20:05;1.77;;;1.20;;
6251;SDS011;3159;52.414;9.784;2022-09-09T05:22:33;3.57;;;1.10;;
6251;SDS011;3159;52.414;9.784;2022-09-09T05:24:59;1.97;;;0.93;;
6251;SDS011;3159;52.414;9.784;2022-09-09T05:27:26;1.97;;;0.90;;
6251;SDS011;3159;52.414;9.784;2022-09-09T05:29:56;2.23;;;1.30;;
6251;SDS011;3159;52.414;9.784;2022-09-09T05:32:23;1.70;;;0.90;;
6251;SDS011;3159;52.414;9.784;2022-09-09T05:34:50;1.77;;;0.90;;
6251;SDS011;3159;52.414;9.784;2022-09-09T05:37:19;2.13;;;0.90;;
6251;SDS011;3159;52.414;9.784;2022-09-09T05:39:46;3.70;;;1.10;;
6251;SDS011;3159;52.414;9.784;2022-09-09T05:42:13;2.07;;;1.00;;
6251;SDS011;3159;52.414;9.784;2022-09-09T05:44:40;3.33;;;1.20;;
6251;SDS011;3159;52.414;9.784;2022-09-09T05:47:07;2.30;;;1.10;;
6251;SDS011;3159;52.414;9.784;2022-09-09T05:49:34;2.57;;;1.20;;
6251;SDS011;3159;52.414;9.784;2022-09-09T05:52:01;4.63;;;1.03;;
6251;SDS011;3159;52.414;9.784;2022-09-09T05:54:30;1.63;;;1.00;;
6251;SDS011;3159;52.414;9.784;2022-09-09T05:56:57;3.03;;;1.20;;
6251;SDS011;3159;52.414;9.784;2022-09-09T05:59:24;3.17;;;1.10;;
6251;SDS011;3159;52.414;9.784;2022-09-09T06:01:51;3.37;;;1.10;;
6251;SDS011;3159;52.414;9.784;2022-09-09T06:04:18;2.83;;;1.10;;
6251;SDS011;3159;52.414;9.784;2022-09-09T06:06:49;2.83;;;1.33;;
6251;SDS011;3159;52.414;9.784;2022-09-09T06:09:16;3.33;;;1.20;;
6251;SDS011;3159;52.414;9.784;2022-09-09T06:11:44;2.17;;;1.30;;
6251;SDS011;3159;52.414;9.784;2022-09-09T06:14:11;3.10;;;1.43;;
6251;SDS011;3159;52.414;9.784;2022-09-09T06:16:38;2.53;;;0.90;;
6251;SDS011;3159;52.414;9.784;2022-09-09T06:19:09;3.67;;;1.27;;
6251;SDS011;3159;52.414;9.784;2022-09-09T06:21:37;1.17;;;1.07;;
6251;SDS011;3159;52.414;9.784;2022-09-09T06:24:05;2.90;;;1.30;;
6251;SDS011;3159;52.414;9.784;2022-09-09T06:26:34;2.37;;;1.20;;
6251;SDS011;3159;52.414;9.784;2022-09-09T06:29:04;2.50;;;1.40;;
6251;SDS011;3159;52.414;9.784;2022-09-09T06:31:31;4.93;;;1.50;;
6251;SDS011;3159;52.414;9.784;2022-09-09T06:34:02;3.37;;;1.30;;
6251;SDS011;3159;52.414;9.784;2022-09-09T06:36:32;2.33;;;1.20;;
6251;SDS011;3159;52.414;9.784;2022-09-09T06:39:00;3.90;;;1.57;;
6251;SDS011;3159;52.414;9.784;2022-09-09T06:41:28;4.97;;;1.37;;
6251;SDS011;3159;52.414;9.784;2022-09-09T06:43:57;3.57;;;1.40;;
6251;SDS011;3159;52.414;9.784;2022-09-09T06:46:25;3.10;;;1.40;;
6251;SDS011;3159;52.414;9.784;2022-09-09T06:48:53;3.97;;;1.60;;
6251;SDS011;3159;52.414;9.784;2022-09-09T06:51:24;3.43;;;1.40;;
6251;SDS011;3159;52.414;9.784;2022-09-09T06:53:53;4.23;;;1.60;;
6251;SDS011;3159;52.414;9.784;2022-09-09T06:56:21;4.57;;;1.67;;
6251;SDS011;3159;52.414;9.784;2022-09-09T06:58:49;4.53;;;1.00;;
6251;SDS011;3159;52.414;9.784;2022-09-09T07:01:18;3.50;;;1.53;;
6251;SDS011;3159;52.414;9.784;2022-09-09T07:03:48;4.20;;;1.20;;
6251;SDS011;3159;52.414;9.784;2022-09-09T07:06:17;3.87;;;1.40;;
6251;SDS011;3159;52.414;9.784;2022-09-09T07:08:48;2.63;;;1.50;;
6251;SDS011;3159;52.414;9.784;2022-09-09T07:11:17;1.77;;;1.30;;
6251;SDS011;3159;52.414;9.784;2022-09-09T07:13:45;2.00;;;1.20;;
6251;SDS011;3159;52.414;9.784;2022-09-09T07:16:13;2.67;;;1.27;;
6251;SDS011;3159;52.414;9.784;2022-09-09T07:18:42;2.33;;;1.27;;
6251;SDS011;3159;52.414;9.784;2022-09-09T07:21:11;4.37;;;1.47;;
6251;SDS011;3159;52.414;9.784;2022-09-09T07:23:39;1.40;;;1.23;;
6251;SDS011;3159;52.414;9.784;2022-09-09T07:26:07;3.53;;;1.17;;
6251;SDS011;3159;52.414;9.784;2022-09-09T07:28:36;3.07;;;1.40;;
6251;SDS011;3159;52.414;9.784;2022-09-09T07:31:03;5.33;;;1.30;;
6251;SDS011;3159;52.414;9.784;2022-09-09T07:33:31;3.53;;;1.50;;
6251;SDS011;3159;52.414;9.784;2022-09-09T07:36:03;2.50;;;1.17;;
6251;SDS011;3159;52.414;9.784;2022-09-09T07:38:36;3.37;;;1.20;;
6251;SDS011;3159;52.414;9.784;2022-09-09T07:41:04;3.90;;;1.40;;
6251;SDS011;3159;52.414;9.784;2022-09-09T07:43:33;4.00;;;1.83;;
6251;SDS011;3159;52.414;9.784;2022-09-09T07:46:00;2.20;;;1.07;;
6251;SDS011;3159;52.414;9.784;2022-09-09T07:48:27;3.73;;;1.50;;
6251;SDS011;3159;52.414;9.784;2022-09-09T07:51:03;4.50;;;1.53;;
6251;SDS011;3159;52.414;9.784;2022-09-09T07:53:37;4.90;;;1.27;;
6251;SDS011;3159;52.414;9.784;2022-09-09T07:56:06;3.43;;;1.20;;
6251;SDS011;3159;52.414;9.784;2022-09-09T07:58:34;3.17;;;1.20;;
6251;SDS011;3159;52.414;9.784;2022-09-09T08:01:05;3.83;;;1.20;;
6251;SDS011;3159;52.414;9.784;2022-09-09T08:03:34;4.77;;;1.40;;
6251;SDS011;3159;52.414;9.784;2022-09-09T08:06:02;2.43;;;1.30;;
6251;SDS011;3159;52.414;9.784;2022-09-09T08:08:29;4.87;;;1.40;;
6251;SDS011;3159;52.414;9.784;2022-09-09T08:11:08;3.20;;;1.10;;
6251;SDS011;3159;52.414;9.784;2022-09-09T08:13:39;2.80;;;1.10;;
6251;SDS011;3159;52.414;9.784;2022-09-09T08:16:08;4.37;;;1.30;;
6251;SDS011;3159;52.414;9.784;2022-09-09T08:18:37;3.03;;;0.90;;
6251;SDS011;3159;52.414;9.784;2022-09-09T08:21:06;4.60;;;1.20;;
6251;SDS011;3159;52.414;9.784;2022-09-09T08:23:36;2.53;;;0.93;;
6251;SDS011;3159;52.414;9.784;2022-09-09T08:26:06;4.33;;;1.27;;
6251;SDS011;3159;52.414;9.784;2022-09-09T08:28:37;3.07;;;0.90;;
6251;SDS011;3159;52.414;9.784;2022-09-09T08:31:05;3.00;;;1.10;;
6251;SDS011;3159;52.414;9.784;2022-09-09T08:33:33;2.20;;;1.00;;
6251;SDS011;3159;52.414;9.784;2022-09-09T08:36:02;2.70;;;0.93;;
6251;SDS011;3159;52.414;9.784;2022-09-09T08:38:29;2.03;;;0.83;;
6251;SDS011;3159;52.414;9.784;2022-09-09T08:40:58;2.93;;;1.00;;
6251;SDS011;3159;52.414;9.784;2022-09-09T08:43:33;5.67;;;1.00;;
6251;SDS011;3159;52.414;9.784;2022-09-09T08:46:02;2.30;;;1.03;;
6251;SDS011;3159;52.414;9.784;2022-09-09T08:48:41;3.60;;;0.90;;
6251;SDS011;3159;52.414;9.784;2022-09-09T08:51:17;3.50;;;1.03;;
6251;SDS011;3159;52.414;9.784;2022-09-09T08:53:46;3.43;;;1.00;;
6251;SDS011;3159;52.414;9.784;2022-09-09T08:56:18;2.17;;;0.93;;
6251;SDS011;3159;52.414;9.784;2022-09-09T08:58:50;9.83;;;1.10;;
6251;SDS011;3159;52.414;9.784;2022-09-09T09:01:26;3.13;;;1.10;;
6251;SDS011;3159;52.414;9.784;2022-09-09T09:04:21;2.90;;;1.13;;
6251;SDS011;3159;52.414;9.784;2022-09-09T09:06:59;2.77;;;0.80;;
6251;SDS011;3159;52.414;9.784;2022-09-09T09:09:37;2.00;;;1.03;;
6251;SDS011;3159;52.414;9.784;2022-09-09T09:12:15;3.43;;;1.17;;
6251;SDS011;3159;52.414;9.784;2022-09-09T09:14:45;3.33;;;1.00;;
6251;SDS011;3159;52.414;9.784;2022-09-09T09:17:14;3.40;;;0.87;;
6251;SDS011;3159;52.414;9.784;2022-09-09T09:19:44;2.87;;;0.90;;
6251;SDS011;3159;52.414;9.784;2022-09-09T09:22:14;4.67;;;1.20;;
6251;SDS011;3159;52.414;9.784;2022-09-09T09:24:49;3.53;;;1.30;;
6251;SDS011;3159;52.414;9.784;2022-09-09T09:27:21;2.63;;;0.80;;
6251;SDS011;3159;52.414;9.784;2022-09-09T09:29:59;3.60;;;1.30;;
6251;SDS011;3159;52.414;9.784;2022-09-09T09:32:31;3.10;;;0.83;;
6251;SDS011;3159;52.414;9.784;2022-09-09T09:35:01;3.40;;;0.77;;
6251;SDS011;3159;52.414;9.784;2022-09-09T09:37:35;2.93;;;0.90;;
6251;SDS011;3159;52.414;9.784;2022-09-09T09:40:09;3.37;;;1.10;;
6251;SDS011;3159;52.414;9.784;2022-09-09T09:42:37;4.70;;;1.10;;
6251;SDS011;3159;52.414;9.784;2022-09-09T09:45:12;2.30;;;1.00;;
6251;SDS011;3159;52.414;9.784;2022-09-09T09:47:43;4.70;;;1.00;;
6251;SDS011;3159;52.414;9.784;2022-09-09T09:50:16;3.73;;;1.03;;
6251;SDS011;3159;52.414;9.784;2022-09-09T09:52:51;3.07;;;0.90;;
6251;SDS011;3159;52.414;9.784;2022-09-09T09:55:21;2.80;;;0.77;;
6251;SDS011;3159;52.414;9.784;2022-09-09T09:57:49;2.20;;;0.73;;
6251;SDS011;3159;52.414;9.784;2022-09-09T10:00:19;3.20;;;1.20;;
6251;SDS011;3159;52.414;9.784;2022-09-09T10:02:47;3.03;;;1.10;;
6251;SDS011;3159;52.414;9.784;2022-09-09T10:05:17;3.67;;;1.10;;
6251;SDS011;3159;52.414;9.784;2022-09-09T10:07:45;2.17;;;0.90;;
6251;SDS011;3159;52.414;9.784;2022-09-09T10:10:14;3.07;;;1.17;;
6251;SDS011;3159;52.414;9.784;2022-09-09T10:12:48;4.77;;;1.07;;
6251;SDS011;3159;52.414;9.784;2022-09-09T10:15:29;5.97;;;1.10;;
6251;SDS011;3159;52.414;9.784;2022-09-09T10:18:05;3.73;;;1.00;;
6251;SDS011;3159;52.414;9.784;2022-09-09T10:20:45;3.87;;;2.40;;
6251;SDS011;3159;52.414;9.784;2022-09-09T10:23:25;3.13;;;0.90;;
6251;SDS011;3159;52.414;9.784;2022-09-09T10:26:07;5.23;;;1.23;;
6251;SDS011;3159;52.414;9.784;2022-09-09T10:28:59;3.33;;;0.90;;
6251;SDS011;3159;52.414;9.784;2022-09-09T10:31:37;3.07;;;0.90;;
6251;SDS011;3159;52.414;9.784;2022-09-09T10:34:16;3.10;;;1.03;;
6251;SDS011;3159;52.414;9.784;2022-09-09T10:36:53;3.50;;;0.90;;
6251;SDS011;3159;52.414;9.784;2022-09-09T10:39:26;6.60;;;1.07;;
6251;SDS011;3159;52.414;9.784;2022-09-09T10:42:01;3.40;;;1.00;;
6251;SDS011;3159;52.414;9.784;2022-09-09T10:44:37;3.73;;;1.00;;
6251;SDS011;3159;52.414;9.784;2022-09-09T10:47:26;3.10;;;0.97;;
6251;SDS011;3159;52.414;9.784;2022-09-09T10:50:18;5.37;;;0.97;;
6251;SDS011;3159;52.414;9.784;2022-09-09T10:52:57;6.17;;;1.20;;
6251;SDS011;3159;52.414;9.784;2022-09-09T10:55:32;2.43;;;1.00;;
6251;SDS011;3159;52.414;9.784;2022-09-09T10:58:03;2.70;;;0.80;;
6251;SDS011;3159;52.414;9.784;2022-09-09T11:00:36;3.03;;;1.00;;
6251;SDS011;3159;52.414;9.784;2022-09-09T11:03:11;6.93;;;1.20;;
6251;SDS011;3159;52.414;9.784;2022-09-09T11:05:45;3.40;;;1.20;;
6251;SDS011;3159;52.414;9.784;2022-09-09T11:08:16;3.40;;;1.03;;
6251;SDS011;3159;52.414;9.784;2022-09-09T11:10:46;3.83;;;1.00;;
6251;SDS011;3159;52.414;9.784;2022-09-09T11:13:22;2.60;;;0.93;;
6251;SDS011;3159;52.414;9.784;2022-09-09T11:15:58;4.10;;;1.00;;
6251;SDS011;3159;52.414;9.784;2022-09-09T11:18:30;2.90;;;0.97;;
6251;SDS011;3159;52.414;9.784;2022-09-09T11:21:03;2.87;;;0.73;;
6251;SDS011;3159;52.414;9.784;2022-09-09T11:23:40;3.60;;;1.00;;
6251;SDS011;3159;52.414;9.784;2022-09-09T11:26:12;3.30;;;0.80;;
6251;SDS011;3159;52.414;9.784;2022-09-09T11:28:58;2.17;;;1.10;;
6251;SDS011;3159;52.414;9.784;2022-09-09T11:31:45;3.00;;;1.00;;
6251;SDS011;3159;52.414;9.784;2022-09-09T11:34:33;3.03;;;1.00;;
6251;SDS011;3159;52.414;9.784;2022-09-09T11:37:09;2.83;;;0.80;;
6251;SDS011;3159;52.414;9.784;2022-09-09T11:40:19;3.57;;;0.80;;
6251;SDS011;3159;52.414;9.784;2022-09-09T11:42:48;3.67;;;1.20;;
6251;SDS011;3159;52.414;9.784;2022-09-09T11:45:27;2.67;;;1.00;;
6251;SDS011;3159;52.414;9.784;2022-09-09T11:47:55;1.77;;;0.63;;
6251;SDS011;3159;52.414;9.784;2022-09-09T11:50:32;2.40;;;0.57;;
6251;SDS011;3159;52.414;9.784;2022-09-09T11:53:20;3.03;;;0.80;;
6251;SDS011;3159;52.414;9.784;2022-09-09T11:55:59;4.80;;;1.23;;
6251;SDS011;3159;52.414;9.784;2022-09-09T11:58:28;2.77;;;0.90;;
6251;SDS011;3159;52.414;9.784;2022-09-09T12:01:12;2.47;;;0.70;;
6251;SDS011;3159;52.414;9.784;2022-09-09T12:03:52;4.10;;;0.70;;
6251;SDS011;3159;52.414;9.784;2022-09-09T12:06:30;1.63;;;0.63;;
6251;SDS011;3159;52.414;9.784;2022-09-09T12:09:05;4.93;;;0.70;;
6251;SDS011;3159;52.414;9.784;2022-09-09T12:11:33;3.90;;;0.67;;
6251;SDS011;3159;52.414;9.784;2022-09-09T12:14:01;1.70;;;0.50;;
6251;SDS011;3159;52.414;9.784;2022-09-09T12:16:32;2.10;;;0.60;;
6251;SDS011;3159;52.414;9.784;2022-09-09T12:19:04;1.67;;;0.60;;
6251;SDS011;3159;52.414;9.784;2022-09-09T12:21:36;4.13;;;0.60;;
6251;SDS011;3159;52.414;9.784;2022-09-09T12:24:10;2.63;;;0.50;;
6251;SDS011;3159;52.414;9.784;2022-09-09T12:26:43;1.70;;;0.50;;
6251;SDS011;3159;52.414;9.784;2022-09-09T12:29:16;2.47;;;0.60;;
6251;SDS011;3159;52.414;9.784;2022-09-09T12:31:52;2.47;;;0.43;;
6251;SDS011;3159;52.414;9.784;2022-09-09T12:34:32;1.30;;;0.63;;
6251;SDS011;3159;52.414;9.784;2022-09-09T12:37:06;1.27;;;0.60;;
6251;SDS011;3159;52.414;9.784;2022-09-09T12:39:41;3.33;;;0.60;;
6251;SDS011;3159;52.414;9.784;2022-09-09T12:42:18;0.50;;;0.30;;
6251;SDS011;3159;52.414;9.784;2022-09-09T12:44:52;3.53;;;0.80;;
6251;SDS011;3159;52.414;9.784;2022-09-09T12:47:21;1.00;;;0.70;;
6251;SDS011;3159;52.414;9.784;2022-09-09T12:49:51;0.90;;;0.40;;
6251;SDS011;3159;52.414;9.784;2022-09-09T12:52:23;2.03;;;0.57;;
6251;SDS011;3159;52.414;9.784;2022-09-09T12:54:56;1.63;;;0.53;;
6251;SDS011;3159;52.414;9.784;2022-09-09T12:57:25;0.70;;;0.60;;
6251;SDS011;3159;52.414;9.784;2022-09-09T13:00:11;0.70;;;0.30;;
6251;SDS011;3159;52.414;9.784;2022-09-09T13:02:48;1.53;;;0.43;;
6251;SDS011;3159;52.414;9.784;2022-09-09T13:05:17;1.23;;;0.50;;
6251;SDS011;3159;52.414;9.784;2022-09-09T13:07:48;1.70;;;0.50;;
6251;SDS011;3159;52.414;9.784;2022-09-09T13:10:19;1.23;;;0.50;;
6251;SDS011;3159;52.414;9.784;2022-09-09T13:12:49;1.37;;;0.60;;
6251;SDS011;3159;52.414;9.784;2022-09-09T13:15:19;1.97;;;0.67;;
6251;SDS011;3159;52.414;9.784;2022-09-09T13:17:54;1.60;;;0.67;;
6251;SDS011;3159;52.414;9.784;2022-09-09T13:20:23;1.60;;;0.57;;
6251;SDS011;3159;52.414;9.784;2022-09-09T13:22:52;3.00;;;0.80;;
6251;SDS011;3159;52.414;9.784;2022-09-09T13:25:22;1.70;;;0.43;;
6251;SDS011;3159;52.414;9.784;2022-09-09T13:27:52;2.53;;;0.60;;
6251;SDS011;3159;52.414;9.784;2022-09-09T13:30:23;0.43;;;0.30;;
6251;SDS011;3159;52.414;9.784;2022-09-09T13:33:05;3.20;;;0.80;;
6251;SDS011;3159;52.414;9.784;2022-09-09T13:35:48;2.23;;;0.67;;
6251;SDS011;3159;52.414;9.784;2022-09-09T13:38:19;1.90;;;0.53;;
6251;SDS011;3159;52.414;9.784;2022-09-09T13:40:53;1.93;;;0.40;;
6251;SDS011;3159;52.414;9.784;2022-09-09T13:43:27;2.27;;;0.67;;
6251;SDS011;3159;52.414;9.784;2022-09-09T13:45:56;1.63;;;0.57;;
6251;SDS011;3159;52.414;9.784;2022-09-09T13:48:24;2.60;;;0.63;;
6251;SDS011;3159;52.414;9.784;2022-09-09T13:50:55;1.30;;;0.70;;
6251;SDS011;3159;52.414;9.784;2022-09-09T13:53:25;2.43;;;0.80;;
6251;SDS011;3159;52.414;9.784;2022-09-09T13:55:52;3.70;;;0.97;;
6251;SDS011;3159;52.414;9.784;2022-09-09T13:58:20;1.37;;;0.70;;
6251;SDS011;3159;52.414;9.784;2022-09-09T14:00:47;2.03;;;0.90;;
6251;SDS011;3159;52.414;9.784;2022-09-09T14:03:15;1.60;;;0.53;;
6251;SDS011;3159;52.414;9.784;2022-09-09T14:05:42;1.60;;;0.80;;
6251;SDS011;3159;52.414;9.784;2022-09-09T14:08:12;1.33;;;0.40;;
6251;SDS011;3159;52.414;9.784;2022-09-09T14:10:47;2.97;;;0.60;;
6251;SDS011;3159;52.414;9.784;2022-09-09T14:13:15;1.53;;;0.70;;
6251;SDS011;3159;52.414;9.784;2022-09-09T14:15:42;2.27;;;0.63;;
6251;SDS011;3159;52.414;9.784;2022-09-09T14:18:10;4.03;;;0.70;;
6251;SDS011;3159;52.414;9.784;2022-09-09T14:20:39;2.13;;;0.60;;
6251;SDS011;3159;52.414;9.784;2022-09-09T14:23:08;2.27;;;0.73;;
6251;SDS011;3159;52.414;9.784;2022-09-09T14:25:38;3.27;;;0.73;;
6251;SDS011;3159;52.414;9.784;2022-09-09T14:28:09;1.60;;;0.60;;
6251;SDS011;3159;52.414;9.784;2022-09-09T14:30:37;1.50;;;0.60;;
6251;SDS011;3159;52.414;9.784;2022-09-09T14:33:05;1.27;;;0.60;;
6251;SDS011;3159;52.414;9.784;2022-09-09T14:35:32;1.97;;;0.50;;
6251;SDS011;3159;52.414;9.784;2022-09-09T14:37:59;5.40;;;1.10;;
6251;SDS011;3159;52.414;9.784;2022-09-09T14:40:27;2.07;;;0.70;;
6251;SDS011;3159;52.414;9.784;2022-09-09T14:42:54;1.30;;;0.90;;
6251;SDS011;3159;52.414;9.784;2022-09-09T14:45:23;2.30;;;0.70;;
6251;SDS011;3159;52.414;9.784;2022-09-09T14:47:51;2.33;;;0.80;;
6251;SDS011;3159;52.414;9.784;2022-09-09T14:50:18;2.30;;;0.87;;
6251;SDS011;3159;52.414;9.784;2022-09-09T14:52:46;4.20;;;0.77;;
6251;SDS011;3159;52.414;9.784;2022-09-09T14:55:13;4.13;;;1.07;;
6251;SDS011;3159;52.414;9.784;2022-09-09T14:57:41;3.87;;;1.03;;
6251;SDS011;3159;52.414;9.784;2022-09-09T15:00:10;1.70;;;0.57;;
6251;SDS011;3159;52.414;9.784;2022-09-09T15:02:39;2.70;;;0.70;;
6251;SDS011;3159;52.414;9.784;2022-09-09T15:05:06;2.00;;;0.77;;
6251;SDS011;3159;52.414;9.784;2022-09-09T15:07:34;4.33;;;1.03;;
6251;SDS011;3159;52.414;9.784;2022-09-09T15:10:01;3.17;;;0.90;;
6251;SDS011;3159;52.414;9.784;2022-09-09T15:12:29;2.03;;;0.50;;
6251;SDS011;3159;52.414;9.784;2022-09-09T15:14:56;1.90;;;0.70;;
6251;SDS011;3159;52.414;9.784;2022-09-09T15:17:24;1.33;;;0.57;;
6251;SDS011;3159;52.414;9.784;2022-09-09T15:19:54;3.37;;;0.80;;
6251;SDS011;3159;52.414;9.784;2022-09-09T15:22:21;2.60;;;0.70;;
6251;SDS011;3159;52.414;9.784;2022-09-09T15:24:49;2.77;;;0.80;;
6251;SDS011;3159;52.414;9.784;2022-09-09T15:27:16;2.20;;;0.70;;
6251;SDS011;3159;52.414;9.784;2022-09-09T15:29:43;1.10;;;0.50;;
6251;SDS011;3159;52.414;9.784;2022-09-09T15:32:10;1.17;;;0.50;;
6251;SDS011;3159;52.414;9.784;2022-09-09T15:34:37;1.83;;;0.70;;
6251;SDS011;3159;52.414;9.784;2022-09-09T15:37:06;1.17;;;0.70;;
6251;SDS011;3159;52.414;9.784;2022-09-09T15:39:38;3.23;;;0.80;;
6251;SDS011;3159;52.414;9.784;2022-09-09T15:42:05;2.27;;;0.83;;